GAP2983 RPLL-RPVA
Flight info
| Callsign | GAP2983 |
|---|---|
| Flight time | 0h 55m |
| Altitude | 35000 |
| Route | IPATA B462 ARREX ARREX2R |
| Aircraft | A321/M-SDE3FGHIRWY/LB1 |
Departure
| Time | 2026-04-17 22:29 |
|---|---|
| Airport | Ninoy Aquino International Airport (RPLL) |
Arrival
| Time | 2026-04-17 23:24 |
|---|---|
| Airport | Daniel Z. Romualdez Airport (RPVA) |
| Time | Latitude | Longitude | Altitude | Speed | Heading |
|---|---|---|---|---|---|
| 2026-04-17 22:15 | 14.51088 | 121.01356 | 82 ft | 0 kts | 221° |
| 2026-04-17 22:18 | 14.51095 | 121.01363 | 82 ft | 2 kts | 221° |
| 2026-04-17 22:18 | 14.51106 | 121.01372 | 82 ft | 2 kts | 221° |
| 2026-04-17 22:18 | 14.51117 | 121.01383 | 82 ft | 2 kts | 221° |
| 2026-04-17 22:19 | 14.51129 | 121.01393 | 82 ft | 2 kts | 221° |
| 2026-04-17 22:19 | 14.51135 | 121.01407 | 82 ft | 2 kts | 272° |
| 2026-04-17 22:19 | 14.51131 | 121.01420 | 82 ft | 0 kts | 309° |
| 2026-04-17 22:19 | 14.51127 | 121.01424 | 82 ft | 1 kts | 317° |
| 2026-04-17 22:20 | 14.51125 | 121.01426 | 82 ft | 0 kts | 315° |
| 2026-04-17 22:21 | 14.51129 | 121.01422 | 82 ft | 1 kts | 315° |
| 2026-04-17 22:22 | 14.51139 | 121.01412 | 82 ft | 2 kts | 315° |
| 2026-04-17 22:22 | 14.51154 | 121.01396 | 82 ft | 3 kts | 315° |
| 2026-04-17 22:22 | 14.51177 | 121.01377 | 82 ft | 4 kts | 331° |
| 2026-04-17 22:22 | 14.51212 | 121.01374 | 82 ft | 5 kts | 14° |
| 2026-04-17 22:23 | 14.51261 | 121.01410 | 82 ft | 12 kts | 44° |
| 2026-04-17 22:23 | 14.51327 | 121.01453 | 82 ft | 10 kts | 358° |
| 2026-04-17 22:23 | 14.51391 | 121.01408 | 82 ft | 11 kts | 315° |
| 2026-04-17 22:23 | 14.51450 | 121.01348 | 82 ft | 12 kts | 315° |
| 2026-04-17 22:24 | 14.51512 | 121.01285 | 82 ft | 12 kts | 314° |
| 2026-04-17 22:24 | 14.51575 | 121.01219 | 82 ft | 12 kts | 315° |
| 2026-04-17 22:24 | 14.51639 | 121.01154 | 82 ft | 13 kts | 315° |
| 2026-04-17 22:24 | 14.51706 | 121.01085 | 82 ft | 13 kts | 315° |
| 2026-04-17 22:25 | 14.51774 | 121.01015 | 82 ft | 13 kts | 314° |
| 2026-04-17 22:25 | 14.51842 | 121.00944 | 82 ft | 13 kts | 315° |
| 2026-04-17 22:25 | 14.51911 | 121.00872 | 82 ft | 14 kts | 315° |
| 2026-04-17 22:25 | 14.51982 | 121.00800 | 82 ft | 14 kts | 315° |
| 2026-04-17 22:26 | 14.52053 | 121.00726 | 82 ft | 14 kts | 315° |
| 2026-04-17 22:26 | 14.52124 | 121.00652 | 82 ft | 14 kts | 315° |
| 2026-04-17 22:26 | 14.52196 | 121.00578 | 82 ft | 14 kts | 315° |
| 2026-04-17 22:26 | 14.52270 | 121.00507 | 82 ft | 14 kts | 319° |
| 2026-04-17 22:27 | 14.52320 | 121.00441 | 82 ft | 6 kts | 295° |
| 2026-04-17 22:27 | 14.52337 | 121.00418 | 82 ft | 1 kts | 9° |
| 2026-04-17 22:27 | 14.52336 | 121.00433 | 82 ft | 3 kts | 124° |
| 2026-04-17 22:27 | 14.52318 | 121.00452 | 82 ft | 3 kts | 135° |
| 2026-04-17 22:28 | 14.52296 | 121.00474 | 82 ft | 4 kts | 135° |
| 2026-04-17 22:28 | 14.52203 | 121.00572 | 82 ft | 53 kts | 135° |
| 2026-04-17 22:28 | 14.51714 | 121.01075 | 83 ft | 141 kts | 135° |
| 2026-04-17 22:28 | 14.50905 | 121.01899 | 517 ft | 174 kts | 135° |
| 2026-04-17 22:29 | 14.49992 | 121.02793 | 1305 ft | 188 kts | 135° |
| 2026-04-17 22:29 | 14.49003 | 121.03752 | 2177 ft | 192 kts | 133° |
| 2026-04-17 22:29 | 14.48112 | 121.04774 | 2734 ft | 196 kts | 127° |
| 2026-04-17 22:29 | 14.47173 | 121.06024 | 3153 ft | 212 kts | 124° |
| 2026-04-17 22:30 | 14.46221 | 121.07322 | 3506 ft | 233 kts | 127° |
| 2026-04-17 22:30 | 14.45016 | 121.08830 | 4005 ft | 253 kts | 128° |
| 2026-04-17 22:30 | 14.43840 | 121.10274 | 4496 ft | 268 kts | 128° |
| 2026-04-17 22:30 | 14.42615 | 121.11779 | 5226 ft | 274 kts | 128° |
| 2026-04-17 22:31 | 14.41410 | 121.13264 | 6016 ft | 276 kts | 127° |
| 2026-04-17 22:31 | 14.40178 | 121.14790 | 6785 ft | 278 kts | 127° |
| 2026-04-17 22:31 | 14.38934 | 121.16337 | 7542 ft | 281 kts | 127° |
| 2026-04-17 22:31 | 14.37697 | 121.17878 | 8265 ft | 283 kts | 127° |
| 2026-04-17 22:32 | 14.36433 | 121.19450 | 8991 ft | 285 kts | 128° |
| 2026-04-17 22:32 | 14.35172 | 121.21021 | 9698 ft | 286 kts | 128° |
| 2026-04-17 22:32 | 14.33909 | 121.22591 | 10323 ft | 290 kts | 128° |
| 2026-04-17 22:32 | 14.32595 | 121.24226 | 10656 ft | 305 kts | 127° |
| 2026-04-17 22:33 | 14.31193 | 121.25971 | 10942 ft | 321 kts | 127° |
| 2026-04-17 22:33 | 14.29749 | 121.27769 | 11306 ft | 333 kts | 127° |
| 2026-04-17 22:33 | 14.28270 | 121.29606 | 11860 ft | 337 kts | 127° |
| 2026-04-17 22:33 | 14.26768 | 121.31471 | 12432 ft | 340 kts | 127° |
| 2026-04-17 22:34 | 14.25240 | 121.33369 | 12985 ft | 344 kts | 127° |
| 2026-04-17 22:34 | 14.23714 | 121.35266 | 13519 ft | 348 kts | 127° |
| 2026-04-17 22:34 | 14.22159 | 121.37199 | 14055 ft | 351 kts | 127° |
| 2026-04-17 22:34 | 14.20600 | 121.39137 | 14574 ft | 354 kts | 127° |
| 2026-04-17 22:35 | 14.19010 | 121.41113 | 15087 ft | 357 kts | 127° |
| 2026-04-17 22:35 | 14.17419 | 121.43090 | 15583 ft | 361 kts | 127° |
| 2026-04-17 22:35 | 14.15807 | 121.45091 | 16063 ft | 364 kts | 127° |
| 2026-04-17 22:35 | 14.14195 | 121.47094 | 16531 ft | 368 kts | 127° |
| 2026-04-17 22:36 | 14.12545 | 121.49143 | 16984 ft | 371 kts | 127° |
| 2026-04-17 22:36 | 14.10900 | 121.51185 | 17418 ft | 375 kts | 127° |
| 2026-04-17 22:36 | 14.09225 | 121.53263 | 17871 ft | 378 kts | 127° |
| 2026-04-17 22:36 | 14.07545 | 121.55348 | 18329 ft | 380 kts | 128° |
| 2026-04-17 22:37 | 14.05842 | 121.57459 | 18803 ft | 382 kts | 127° |
| 2026-04-17 22:37 | 14.04152 | 121.59554 | 19261 ft | 383 kts | 128° |
| 2026-04-17 22:37 | 14.02435 | 121.61684 | 19709 ft | 385 kts | 128° |
| 2026-04-17 22:37 | 14.00735 | 121.63792 | 20136 ft | 386 kts | 128° |
| 2026-04-17 22:38 | 13.99004 | 121.65936 | 20553 ft | 388 kts | 128° |
| 2026-04-17 22:38 | 13.97179 | 121.68199 | 20976 ft | 390 kts | 128° |
| 2026-04-17 22:38 | 13.95440 | 121.70354 | 21364 ft | 392 kts | 128° |
| 2026-04-17 22:38 | 13.93703 | 121.72507 | 21741 ft | 393 kts | 129° |
| 2026-04-17 22:39 | 13.91956 | 121.74671 | 22109 ft | 395 kts | 129° |
| 2026-04-17 22:39 | 13.90194 | 121.76852 | 22483 ft | 396 kts | 129° |
| 2026-04-17 22:39 | 13.86659 | 121.81223 | 23187 ft | 400 kts | 129° |
| 2026-04-17 22:40 | 13.84870 | 121.83420 | 23520 ft | 402 kts | 129° |
| 2026-04-17 22:40 | 13.83048 | 121.85646 | 23844 ft | 405 kts | 129° |
| 2026-04-17 22:40 | 13.81226 | 121.87872 | 24158 ft | 407 kts | 129° |
| 2026-04-17 22:40 | 13.79399 | 121.90105 | 24469 ft | 410 kts | 129° |
| 2026-04-17 22:41 | 13.77570 | 121.92344 | 24784 ft | 412 kts | 129° |
| 2026-04-17 22:41 | 13.75712 | 121.94618 | 25097 ft | 414 kts | 129° |
| 2026-04-17 22:41 | 13.73866 | 121.96878 | 25390 ft | 416 kts | 129° |
| 2026-04-17 22:41 | 13.71982 | 121.99184 | 25695 ft | 418 kts | 130° |
| 2026-04-17 22:42 | 13.70116 | 122.01468 | 25984 ft | 421 kts | 130° |
| 2026-04-17 22:42 | 13.68229 | 122.03777 | 26294 ft | 422 kts | 130° |
| 2026-04-17 22:42 | 13.66331 | 122.06099 | 26598 ft | 424 kts | 130° |
| 2026-04-17 22:42 | 13.64421 | 122.08434 | 26891 ft | 426 kts | 130° |
| 2026-04-17 22:43 | 13.62514 | 122.10766 | 27171 ft | 428 kts | 130° |
| 2026-04-17 22:43 | 13.60600 | 122.13105 | 27447 ft | 431 kts | 130° |
| 2026-04-17 22:43 | 13.58664 | 122.15471 | 27729 ft | 432 kts | 130° |
| 2026-04-17 22:43 | 13.56733 | 122.17828 | 28003 ft | 434 kts | 130° |
| 2026-04-17 22:44 | 13.54782 | 122.20213 | 28277 ft | 436 kts | 130° |
| 2026-04-17 22:44 | 13.52801 | 122.22633 | 28543 ft | 438 kts | 130° |
| 2026-04-17 22:44 | 13.50841 | 122.25025 | 28783 ft | 441 kts | 130° |
| 2026-04-17 22:44 | 13.48841 | 122.27467 | 29030 ft | 443 kts | 130° |
| 2026-04-17 22:45 | 13.46859 | 122.29882 | 29277 ft | 445 kts | 130° |
| 2026-04-17 22:45 | 13.44852 | 122.32329 | 29548 ft | 446 kts | 130° |
| 2026-04-17 22:45 | 13.42832 | 122.34791 | 29820 ft | 448 kts | 130° |
| 2026-04-17 22:45 | 13.40827 | 122.37234 | 30084 ft | 449 kts | 130° |
| 2026-04-17 22:46 | 13.38822 | 122.39678 | 30345 ft | 450 kts | 130° |
| 2026-04-17 22:46 | 13.36811 | 122.42128 | 30633 ft | 450 kts | 130° |
| 2026-04-17 22:46 | 13.34787 | 122.44594 | 30992 ft | 449 kts | 130° |
| 2026-04-17 22:46 | 13.32759 | 122.47063 | 31360 ft | 447 kts | 130° |
| 2026-04-17 22:47 | 13.30752 | 122.49506 | 31687 ft | 446 kts | 129° |
| 2026-04-17 22:47 | 13.28760 | 122.51930 | 31997 ft | 446 kts | 129° |
| 2026-04-17 22:47 | 13.26758 | 122.54366 | 32324 ft | 445 kts | 129° |
| 2026-04-17 22:47 | 13.24775 | 122.56778 | 32664 ft | 444 kts | 129° |
| 2026-04-17 22:48 | 13.22793 | 122.59190 | 33023 ft | 443 kts | 129° |
| 2026-04-17 22:48 | 13.20799 | 122.61617 | 33366 ft | 442 kts | 130° |
| 2026-04-17 22:48 | 13.18811 | 122.64035 | 33679 ft | 442 kts | 130° |
| 2026-04-17 22:48 | 13.16623 | 122.66694 | 33993 ft | 443 kts | 130° |
| 2026-04-17 22:49 | 13.14301 | 122.69514 | 34289 ft | 444 kts | 130° |
| 2026-04-17 22:49 | 13.11965 | 122.72350 | 34585 ft | 445 kts | 130° |
| 2026-04-17 22:49 | 13.09624 | 122.75191 | 34879 ft | 446 kts | 130° |
| 2026-04-17 22:49 | 13.07347 | 122.77953 | 34920 ft | 447 kts | 130° |
| 2026-04-17 22:50 | 13.02785 | 122.83485 | 34925 ft | 447 kts | 130° |
| 2026-04-17 22:50 | 12.98237 | 122.88997 | 34927 ft | 446 kts | 130° |
| 2026-04-17 22:51 | 12.93632 | 122.94576 | 34926 ft | 447 kts | 130° |
| 2026-04-17 22:51 | 12.89073 | 123.00096 | 34929 ft | 448 kts | 130° |
| 2026-04-17 22:52 | 12.84633 | 123.05469 | 34941 ft | 448 kts | 130° |
| 2026-04-17 22:52 | 12.80598 | 123.10346 | 34943 ft | 448 kts | 130° |
| 2026-04-17 22:53 | 12.76566 | 123.15220 | 34945 ft | 447 kts | 130° |
| 2026-04-17 22:53 | 12.72575 | 123.20041 | 34946 ft | 447 kts | 130° |
| 2026-04-17 22:54 | 12.68546 | 123.24907 | 34945 ft | 447 kts | 130° |
| 2026-04-17 22:54 | 12.64519 | 123.29766 | 34945 ft | 447 kts | 130° |
| 2026-04-17 22:55 | 12.60489 | 123.34627 | 34946 ft | 447 kts | 130° |
| 2026-04-17 22:55 | 12.56469 | 123.39473 | 34943 ft | 447 kts | 130° |
| 2026-04-17 22:56 | 12.52465 | 123.44298 | 34938 ft | 447 kts | 130° |
| 2026-04-17 22:56 | 12.48447 | 123.49141 | 34936 ft | 447 kts | 130° |
| 2026-04-17 22:57 | 12.44397 | 123.54020 | 34937 ft | 447 kts | 130° |
| 2026-04-17 22:57 | 12.40370 | 123.58868 | 34933 ft | 448 kts | 130° |
| 2026-04-17 22:58 | 12.36351 | 123.63707 | 34932 ft | 448 kts | 130° |
| 2026-04-17 22:58 | 12.32292 | 123.68698 | 34934 ft | 447 kts | 130° |
| 2026-04-17 22:59 | 12.28332 | 123.73594 | 34936 ft | 447 kts | 130° |
| 2026-04-17 22:59 | 12.24372 | 123.78487 | 34942 ft | 447 kts | 130° |
| 2026-04-17 23:00 | 12.20414 | 123.83372 | 34945 ft | 448 kts | 130° |
| 2026-04-17 23:00 | 12.16422 | 123.88296 | 34946 ft | 448 kts | 130° |
| 2026-04-17 23:01 | 12.12466 | 123.93173 | 34945 ft | 448 kts | 130° |
| 2026-04-17 23:01 | 12.08493 | 123.98066 | 34691 ft | 450 kts | 130° |
| 2026-04-17 23:02 | 12.06490 | 124.00531 | 34142 ft | 446 kts | 130° |
| 2026-04-17 23:02 | 12.04521 | 124.02953 | 33602 ft | 442 kts | 130° |
| 2026-04-17 23:02 | 12.02588 | 124.05334 | 33071 ft | 438 kts | 129° |
| 2026-04-17 23:02 | 12.00638 | 124.07736 | 32539 ft | 438 kts | 129° |
| 2026-04-17 23:03 | 11.98682 | 124.10143 | 32041 ft | 439 kts | 129° |
| 2026-04-17 23:03 | 11.96730 | 124.12548 | 31545 ft | 440 kts | 129° |
| 2026-04-17 23:03 | 11.94787 | 124.14939 | 31055 ft | 442 kts | 129° |
| 2026-04-17 23:03 | 11.92803 | 124.17381 | 30557 ft | 444 kts | 129° |
| 2026-04-17 23:04 | 11.90856 | 124.19778 | 30071 ft | 445 kts | 129° |
| 2026-04-17 23:04 | 11.88846 | 124.22250 | 29571 ft | 442 kts | 129° |
| 2026-04-17 23:04 | 11.86716 | 124.24867 | 29038 ft | 439 kts | 129° |
| 2026-04-17 23:04 | 11.84540 | 124.27535 | 28493 ft | 436 kts | 129° |
| 2026-04-17 23:05 | 11.82426 | 124.30121 | 27991 ft | 433 kts | 129° |
| 2026-04-17 23:05 | 11.80504 | 124.32474 | 27533 ft | 430 kts | 129° |
| 2026-04-17 23:05 | 11.78582 | 124.34830 | 27071 ft | 427 kts | 129° |
| 2026-04-17 23:05 | 11.76707 | 124.37129 | 26617 ft | 424 kts | 129° |
| 2026-04-17 23:06 | 11.74823 | 124.39439 | 26160 ft | 421 kts | 129° |
| 2026-04-17 23:06 | 11.72967 | 124.41716 | 25704 ft | 418 kts | 129° |
| 2026-04-17 23:06 | 11.71102 | 124.44003 | 25244 ft | 415 kts | 129° |
| 2026-04-17 23:06 | 11.69157 | 124.46388 | 24762 ft | 412 kts | 128° |
| 2026-04-17 23:07 | 11.67190 | 124.48801 | 24270 ft | 409 kts | 129° |
| 2026-04-17 23:07 | 11.65160 | 124.51290 | 23760 ft | 406 kts | 129° |
| 2026-04-17 23:07 | 11.63123 | 124.53786 | 23254 ft | 403 kts | 128° |
| 2026-04-17 23:07 | 11.61118 | 124.56245 | 22755 ft | 401 kts | 128° |
| 2026-04-17 23:08 | 11.59121 | 124.58691 | 22255 ft | 398 kts | 128° |
| 2026-04-17 23:08 | 11.57299 | 124.60925 | 21795 ft | 395 kts | 128° |
| 2026-04-17 23:08 | 11.55561 | 124.63054 | 21355 ft | 392 kts | 128° |
| 2026-04-17 23:08 | 11.53796 | 124.65215 | 20902 ft | 389 kts | 129° |
| 2026-04-17 23:09 | 11.51858 | 124.67586 | 20401 ft | 386 kts | 129° |
| 2026-04-17 23:09 | 11.49804 | 124.69786 | 19904 ft | 384 kts | 136° |
| 2026-04-17 23:09 | 11.47451 | 124.71692 | 19402 ft | 382 kts | 143° |
| 2026-04-17 23:09 | 11.44926 | 124.73462 | 18890 ft | 380 kts | 145° |
| 2026-04-17 23:10 | 11.42376 | 124.75212 | 18374 ft | 378 kts | 145° |
| 2026-04-17 23:10 | 11.39868 | 124.76937 | 17857 ft | 375 kts | 145° |
| 2026-04-17 23:10 | 11.37411 | 124.78636 | 17350 ft | 372 kts | 145° |
| 2026-04-17 23:10 | 11.34997 | 124.80308 | 16861 ft | 369 kts | 144° |
| 2026-04-17 23:11 | 11.32612 | 124.81960 | 16375 ft | 366 kts | 144° |
| 2026-04-17 23:11 | 11.30260 | 124.83591 | 15891 ft | 364 kts | 144° |
| 2026-04-17 23:11 | 11.27902 | 124.85224 | 15399 ft | 361 kts | 145° |
| 2026-04-17 23:11 | 11.25367 | 124.86513 | 14895 ft | 361 kts | 161° |
| 2026-04-17 23:12 | 11.22516 | 124.87225 | 14393 ft | 359 kts | 167° |
| 2026-04-17 23:12 | 11.19664 | 124.87833 | 13882 ft | 357 kts | 167° |
| 2026-04-17 23:12 | 11.16828 | 124.88438 | 13366 ft | 355 kts | 167° |
| 2026-04-17 23:12 | 11.14008 | 124.89052 | 12852 ft | 353 kts | 166° |
| 2026-04-17 23:13 | 11.11211 | 124.89671 | 12338 ft | 351 kts | 166° |
| 2026-04-17 23:13 | 11.08414 | 124.90293 | 11810 ft | 349 kts | 166° |
| 2026-04-17 23:13 | 11.05605 | 124.90920 | 11283 ft | 348 kts | 166° |
| 2026-04-17 23:13 | 11.02789 | 124.91552 | 10753 ft | 346 kts | 166° |
| 2026-04-17 23:14 | 10.99973 | 124.92185 | 10214 ft | 345 kts | 166° |
| 2026-04-17 23:14 | 10.97242 | 124.92793 | 9983 ft | 333 kts | 166° |
| 2026-04-17 23:14 | 10.94612 | 124.93372 | 9971 ft | 314 kts | 166° |
| 2026-04-17 23:14 | 10.92112 | 124.93918 | 9973 ft | 302 kts | 166° |
| 2026-04-17 23:15 | 10.89714 | 124.94446 | 9975 ft | 300 kts | 166° |
| 2026-04-17 23:15 | 10.87635 | 124.94906 | 9975 ft | 300 kts | 166° |
| 2026-04-17 23:15 | 10.85575 | 124.95363 | 9720 ft | 301 kts | 166° |
| 2026-04-17 23:15 | 10.83248 | 124.95882 | 9359 ft | 298 kts | 164° |
| 2026-04-17 23:16 | 10.81163 | 124.96916 | 8940 ft | 291 kts | 133° |
| 2026-04-17 23:16 | 10.80115 | 124.98808 | 8555 ft | 284 kts | 100° |
| 2026-04-17 23:16 | 10.80115 | 125.00960 | 8163 ft | 279 kts | 75° |
| 2026-04-17 23:16 | 10.80882 | 125.02754 | 7799 ft | 276 kts | 54° |
| 2026-04-17 23:17 | 10.82268 | 125.04112 | 7432 ft | 274 kts | 32° |
| 2026-04-17 23:17 | 10.84020 | 125.04799 | 7053 ft | 275 kts | 9° |
| 2026-04-17 23:17 | 10.85941 | 125.04725 | 6615 ft | 276 kts | 346° |
| 2026-04-17 23:17 | 10.87675 | 125.03926 | 6178 ft | 269 kts | 331° |
| 2026-04-17 23:18 | 10.89250 | 125.02969 | 5749 ft | 261 kts | 330° |
| 2026-04-17 23:18 | 10.90801 | 125.02024 | 5312 ft | 254 kts | 330° |
| 2026-04-17 23:18 | 10.92326 | 125.01194 | 4880 ft | 247 kts | 341° |
| 2026-04-17 23:18 | 10.93996 | 125.00861 | 4463 ft | 240 kts | 360° |
| 2026-04-17 23:19 | 10.95625 | 125.00926 | 4062 ft | 234 kts | 4° |
| 2026-04-17 23:19 | 10.97252 | 125.01048 | 3645 ft | 230 kts | 5° |
| 2026-04-17 23:19 | 10.98829 | 125.01169 | 3258 ft | 226 kts | 5° |
| 2026-04-17 23:19 | 11.00397 | 125.01282 | 2869 ft | 223 kts | 5° |
| 2026-04-17 23:20 | 11.01940 | 125.01389 | 2536 ft | 216 kts | 4° |
| 2026-04-17 23:20 | 11.03385 | 125.01488 | 2514 ft | 199 kts | 4° |
| 2026-04-17 23:20 | 11.04801 | 125.01583 | 2554 ft | 196 kts | 4° |
| 2026-04-17 23:20 | 11.06339 | 125.01686 | 2500 ft | 195 kts | 4° |
| 2026-04-17 23:21 | 11.07846 | 125.01787 | 2483 ft | 196 kts | 4° |
| 2026-04-17 23:21 | 11.09324 | 125.01885 | 2441 ft | 194 kts | 4° |
| 2026-04-17 23:21 | 11.10692 | 125.01976 | 2225 ft | 186 kts | 4° |
| 2026-04-17 23:21 | 11.11964 | 125.02059 | 1933 ft | 176 kts | 5° |
| 2026-04-17 23:22 | 11.13151 | 125.02138 | 1671 ft | 161 kts | 5° |
| 2026-04-17 23:22 | 11.14225 | 125.02209 | 1447 ft | 147 kts | 5° |
| 2026-04-17 23:22 | 11.15240 | 125.02279 | 1272 ft | 144 kts | 5° |
| 2026-04-17 23:22 | 11.16240 | 125.02346 | 1096 ft | 143 kts | 5° |
| 2026-04-17 23:23 | 11.17243 | 125.02413 | 912 ft | 142 kts | 5° |
| 2026-04-17 23:23 | 11.18228 | 125.02480 | 722 ft | 142 kts | 5° |
| 2026-04-17 23:23 | 11.19222 | 125.02544 | 539 ft | 142 kts | 3° |
| 2026-04-17 23:23 | 11.20211 | 125.02600 | 377 ft | 140 kts | 4° |
| 2026-04-17 23:24 | 11.21189 | 125.02667 | 183 ft | 140 kts | 4° |
| 2026-04-17 23:24 | 11.22155 | 125.02733 | 28 ft | 138 kts | 4° |
| 2026-04-17 23:24 | 11.22939 | 125.02787 | 18 ft | 71 kts | 3° |
| 2026-04-17 23:24 | 11.23200 | 125.02804 | 18 ft | 13 kts | 4° |
| 2026-04-17 23:25 | 11.23298 | 125.02811 | 17 ft | 14 kts | 4° |
| 2026-04-17 23:25 | 11.23398 | 125.02818 | 17 ft | 14 kts | 4° |
| 2026-04-17 23:25 | 11.23502 | 125.02825 | 17 ft | 15 kts | 4° |
| 2026-04-17 23:25 | 11.23607 | 125.02832 | 17 ft | 13 kts | 357° |
| 2026-04-17 23:26 | 11.23690 | 125.02808 | 17 ft | 7 kts | 10° |
| 2026-04-17 23:26 | 11.23682 | 125.02835 | 17 ft | 7 kts | 176° |
| 2026-04-17 23:26 | 11.23626 | 125.02833 | 17 ft | 8 kts | 183° |
| 2026-04-17 23:26 | 11.23561 | 125.02829 | 17 ft | 10 kts | 184° |
| 2026-04-17 23:27 | 11.23486 | 125.02824 | 17 ft | 11 kts | 184° |
| 2026-04-17 23:27 | 11.23405 | 125.02819 | 17 ft | 12 kts | 183° |
| 2026-04-17 23:27 | 11.23316 | 125.02814 | 17 ft | 13 kts | 183° |
| 2026-04-17 23:27 | 11.23224 | 125.02806 | 17 ft | 13 kts | 184° |
| 2026-04-17 23:28 | 11.23131 | 125.02799 | 18 ft | 13 kts | 184° |
| 2026-04-17 23:28 | 11.23031 | 125.02792 | 18 ft | 14 kts | 184° |
| 2026-04-17 23:28 | 11.22928 | 125.02786 | 18 ft | 15 kts | 183° |
| 2026-04-17 23:28 | 11.22830 | 125.02780 | 18 ft | 11 kts | 184° |
| 2026-04-17 23:29 | 11.22743 | 125.02775 | 18 ft | 12 kts | 184° |
| 2026-04-17 23:29 | 11.22652 | 125.02769 | 19 ft | 13 kts | 183° |
| 2026-04-17 23:29 | 11.22573 | 125.02754 | 19 ft | 8 kts | 222° |
| 2026-04-17 23:29 | 11.22579 | 125.02702 | 19 ft | 7 kts | 316° |
| 2026-04-17 23:30 | 11.22621 | 125.02663 | 19 ft | 7 kts | 316° |
| 2026-04-17 23:30 | 11.22634 | 125.02651 | 19 ft | 0 kts | 316° |